Time;durP1;ratioP1;P1;durP2;ratioP2;P2;SDS_P1;SDS_P2;PMS_P1;PMS_P2;Temp;Humidity;BMP_temperature;BMP_pressure;BME280_temperature;BME280_humidity;BME280_pressure;Samples;Min_cycle;Max_cycle;Signal;HPM_P1;HPM_P2
2022/03/10 00:01:39;;;;;;;24.58;3.30;;;;;;;21.30;53.31;100510.09;7311492;19;157680;-38
2022/03/10 00:04:04;;;;;;;27.15;3.13;;;;;;;21.51;51.84;100520.69;7308124;19;158975;-37
2022/03/10 00:06:29;;;;;;;25.25;2.97;;;;;;;21.65;51.47;100521.31;7311337;19;155099;-38
2022/03/10 00:08:54;;;;;;;25.23;3.00;;;;;;;21.77;51.15;100525.63;7307472;19;130215;-39
2022/03/10 00:11:20;;;;;;;32.95;3.78;;;;;;;21.90;50.53;100521.13;7308187;19;130249;-37
2022/03/10 00:13:46;;;;;;;45.67;5.00;;;;;;;22.06;50.56;100523.38;7305656;19;158488;-38
2022/03/10 00:16:12;;;;;;;28.95;3.33;;;;;;;22.18;49.99;100526.81;7311430;19;128930;-38
2022/03/10 00:18:37;;;;;;;27.33;3.22;;;;;;;22.21;49.76;100521.34;7308023;19;154892;-40
2022/03/10 00:21:02;;;;;;;28.88;3.47;;;;;;;22.20;49.76;100519.66;7312691;19;130762;-37
2022/03/10 00:23:28;;;;;;;18.73;2.50;;;;;;;22.16;49.84;100526.09;7311056;19;155045;-38
2022/03/10 00:25:54;;;;;;;25.88;2.97;;;;;;;22.01;49.69;100507.19;7311590;19;154526;-41
2022/03/10 00:28:20;;;;;;;45.53;4.85;;;;;;;22.05;49.93;100520.88;7305321;19;129532;-38
2022/03/10 00:30:45;;;;;;;28.90;3.60;;;;;;;21.96;50.40;100525.88;7306603;19;130240;-39
2022/03/10 00:33:10;;;;;;;30.83;3.65;;;;;;;21.90;50.31;100521.13;7307567;19;158462;-38
2022/03/10 00:35:36;;;;;;;45.53;5.13;;;;;;;21.83;50.81;100530.38;7307774;19;154806;-40
2022/03/10 00:38:01;;;;;;;26.20;3.30;;;;;;;21.76;50.95;100526.59;7309521;19;129616;-37
2022/03/10 00:40:27;;;;;;;31.25;3.63;;;;;;;21.70;51.70;100534.06;7309823;19;157280;-39
2022/03/10 00:42:52;;;;;;;27.30;3.27;;;;;;;21.62;51.67;100537.25;7306257;19;129149;-37
2022/03/10 00:45:20;;;;;;;44.47;4.82;;;;;;;21.54;51.94;100539.63;7310612;19;155609;-39
2022/03/10 00:47:45;;;;;;;27.88;3.42;;;;;;;21.51;52.29;100545.09;7306696;19;129861;-38
2022/03/10 00:50:11;;;;;;;23.20;2.90;;;;;;;21.45;52.07;100535.06;7312395;19;130800;-38
2022/03/10 00:52:41;;;;;;;20.55;2.83;;;;;;;21.41;52.58;100533.66;7309592;19;129245;-39
2022/03/10 00:55:07;;;;;;;17.00;2.70;;;;;;;21.38;53.49;100538.28;7310053;19;129805;-38
2022/03/10 00:57:32;;;;;;;20.70;2.57;;;;;;;21.34;53.08;100537.66;7310664;19;129320;-37
2022/03/10 00:59:58;;;;;;;27.63;3.17;;;;;;;21.32;53.28;100541.34;7309618;19;157812;-38
2022/03/10 01:02:23;;;;;;;28.38;3.38;;;;;;;21.31;54.07;100537.91;7308060;19;159164;-39
2022/03/10 01:04:48;;;;;;;62.77;6.00;;;;;;;21.30;54.00;100541.47;7306417;19;154216;-39
2022/03/10 01:07:13;;;;;;;23.80;3.00;;;;;;;21.32;54.41;100550.00;7307326;19;135296;-38
2022/03/10 01:09:39;;;;;;;25.15;2.88;;;;;;;21.31;54.17;100548.38;7307790;19;135811;-39
2022/03/10 01:12:04;;;;;;;23.77;2.92;;;;;;;21.32;54.63;100550.00;7310000;19;158449;-38
2022/03/10 01:14:29;;;;;;;22.42;2.78;;;;;;;21.37;54.27;100547.06;7310096;19;129380;-38
2022/03/10 01:16:56;;;;;;;43.45;4.65;;;;;;;21.40;54.31;100552.88;7308790;19;130443;-39
2022/03/10 01:19:22;;;;;;;24.55;2.90;;;;;;;21.42;54.20;100551.00;7311882;19;130244;-38
2022/03/10 01:21:47;;;;;;;37.20;4.05;;;;;;;21.38;54.61;100539.13;7307335;19;129607;-38
2022/03/10 01:24:12;;;;;;;48.70;4.95;;;;;;;21.42;54.52;100545.75;7305199;19;154593;-38
2022/03/10 01:26:38;;;;;;;45.22;4.65;;;;;;;21.51;54.39;100563.41;7307133;19;154304;-37
2022/03/10 01:29:03;;;;;;;14.00;2.25;;;;;;;21.52;54.02;100562.44;7307246;19;130319;-39
2022/03/10 01:31:29;;;;;;;48.95;4.72;;;;;;;21.51;53.98;100555.56;7304041;19;130569;-38
2022/03/10 01:33:54;;;;;;;17.10;2.25;;;;;;;21.44;55.78;100559.56;7309206;19;143540;-38
2022/03/10 01:36:19;;;;;;;36.00;4.15;;;;;;;21.36;54.74;100561.09;7307720;19;153040;-40
2022/03/10 01:38:44;;;;;;;24.75;3.00;;;;;;;21.28;54.07;100559.06;7307593;19;130512;-40
2022/03/10 01:41:10;;;;;;;35.45;4.07;;;;;;;21.33;53.09;100567.41;7307382;19;157597;-38
2022/03/10 01:43:55;;;;;;;24.77;2.72;;;;;;;21.45;52.28;100561.22;7307753;19;154661;-38
2022/03/10 01:46:20;;;;;;;14.15;2.20;;;;;;;21.58;52.45;100566.38;7310696;19;129010;-39
2022/03/10 01:48:45;;;;;;;30.90;3.40;;;;;;;21.68;51.50;100557.69;7312192;19;130840;-40
2022/03/10 01:51:12;;;;;;;13.57;1.85;;;;;;;21.88;51.01;100559.66;7315303;19;129532;-38
2022/03/10 01:53:37;;;;;;;57.83;5.90;;;;;;;22.05;50.19;100560.16;7313538;19;129118;-39
2022/03/10 01:56:03;;;;;;;49.33;4.72;;;;;;;22.16;50.45;100553.13;7311396;19;129873;-38
2022/03/10 01:58:28;;;;;;;24.02;3.08;;;;;;;22.28;50.24;100556.59;7311659;19;132762;-40
2022/03/10 02:00:53;;;;;;;25.40;3.20;;;;;;;22.27;49.95;100560.97;7313114;19;158130;-41
2022/03/10 02:03:18;;;;;;;28.70;3.40;;;;;;;22.26;49.81;100558.47;7312951;19;155571;-39
2022/03/10 02:05:44;;;;;;;23.35;2.80;;;;;;;22.25;49.59;100559.41;7314002;19;153973;-39
2022/03/10 02:10:53;;;;;;;45.00;4.47;;;;;;;22.08;49.92;100562.53;7312594;19;129373;-39
2022/03/10 02:13:18;;;;;;;29.13;3.47;;;;;;;22.01;50.27;100561.34;7314613;19;128915;-38
2022/03/10 02:18:27;;;;;;;20.55;2.55;;;;;;;21.85;50.66;100574.78;7313481;19;131737;-38
2022/03/10 02:20:52;;;;;;;24.48;2.83;;;;;;;21.74;51.30;100567.72;7314456;19;158638;-39
2022/03/10 02:23:18;;;;;;;24.45;3.00;;;;;;;21.70;51.50;100570.69;7313044;19;155608;-39
2022/03/10 02:25:45;;;;;;;25.93;3.30;;;;;;;21.62;51.70;100579.13;7316632;19;129207;-39
2022/03/10 02:28:10;;;;;;;;;;;;;;;21.50;51.81;100572.19;7313419;19;132562;-41
2022/03/10 02:30:36;;;;;;;19.30;2.47;;;;;;;21.49;52.05;100578.38;7311216;19;159391;-39
2022/03/10 02:33:02;;;;;;;23.48;2.60;;;;;;;21.45;52.87;100573.50;7314204;19;129080;-38
2022/03/10 02:35:27;;;;;;;47.50;4.88;;;;;;;21.41;53.28;100574.66;7315322;19;131003;-37
2022/03/10 02:37:53;;;;;;;25.52;3.03;;;;;;;21.36;53.03;100582.84;7312622;19;129283;-38
2022/03/10 02:40:18;;;;;;;39.00;3.90;;;;;;;21.33;53.57;100588.31;7314645;19;130426;-38
2022/03/10 02:42:43;;;;;;;15.45;2.42;;;;;;;21.30;54.22;100593.78;7315087;19;129252;-39
2022/03/10 02:45:10;;;;;;;29.00;3.03;;;;;;;21.29;54.49;100594.72;7316108;19;130062;-39
2022/03/10 02:47:36;;;;;;;26.20;2.83;;;;;;;21.28;54.42;100587.81;7311094;19;130552;-38
2022/03/10 02:50:04;;;;;;;18.40;2.17;;;;;;;21.28;54.57;100595.66;7315377;19;129709;-39
2022/03/10 02:52:29;;;;;;;18.95;2.25;;;;;;;21.29;54.79;100581.63;7314450;19;131026;-38
2022/03/10 02:54:54;;;;;;;25.67;2.95;;;;;;;21.30;54.73;100583.31;7316163;19;130193;-40
2022/03/10 02:57:20;;;;;;;41.67;4.50;;;;;;;21.25;54.55;100582.81;7308873;19;141159;-38
2022/03/10 02:59:45;;;;;;;14.27;2.50;;;;;;;21.24;53.99;100591.59;7309218;19;153430;-38
2022/03/10 03:02:11;;;;;;;24.45;2.83;;;;;;;21.31;53.47;100584.97;7309632;19;130166;-39
2022/03/10 03:04:37;;;;;;;19.92;2.25;;;;;;;21.34;52.54;100576.91;7312174;19;130369;-40
2022/03/10 03:07:03;;;;;;;16.65;2.08;;;;;;;21.57;52.62;100596.94;7310240;19;158574;-40
2022/03/10 03:09:28;;;;;;;31.42;3.17;;;;;;;21.72;51.43;100594.94;7313716;19;130549;-39
2022/03/10 03:11:54;;;;;;;32.25;3.28;;;;;;;21.88;50.83;100593.69;7312075;19;133800;-39
2022/03/10 03:14:22;;;;;;;52.97;4.90;;;;;;;22.02;50.86;100595.25;7314220;19;129075;-39
2022/03/10 03:16:51;;;;;;;37.70;3.92;;;;;;;22.13;50.10;100576.13;7312552;19;130313;-39
2022/03/10 03:19:17;;;;;;;59.17;5.93;;;;;;;22.38;49.80;100583.72;7308072;19;131293;-40
2022/03/10 03:21:42;;;;;;;25.65;2.75;;;;;;;22.45;49.93;100584.88;7305106;19;151639;-40
2022/03/10 03:24:07;;;;;;;28.17;3.03;;;;;;;22.45;49.76;100580.50;7310653;19;154299;-40
2022/03/10 03:26:33;;;;;;;28.60;3.22;;;;;;;22.44;49.46;100583.22;7311682;19;130260;-39
2022/03/10 03:28:58;;;;;;;28.88;3.13;;;;;;;22.39;49.44;100582.75;7307381;19;158428;-38
2022/03/10 03:31:23;;;;;;;23.83;2.50;;;;;;;22.35;50.11;100583.94;7311544;19;154506;-39
2022/03/10 03:33:50;;;;;;;29.35;2.88;;;;;;;22.23;49.79;100590.16;7309403;19;129746;-38
2022/03/10 03:36:15;;;;;;;24.10;2.75;;;;;;;22.14;49.98;100588.25;7310061;19;130581;-40
2022/03/10 03:38:41;;;;;;;51.00;5.00;;;;;;;22.08;50.22;100596.59;7305695;19;130285;-38
2022/03/10 03:41:06;;;;;;;41.42;4.25;;;;;;;21.96;50.91;100599.19;7308810;19;129323;-39
2022/03/10 03:43:31;;;;;;;26.10;2.95;;;;;;;21.88;50.85;100606.78;7310335;19;156319;-39
2022/03/10 03:45:57;;;;;;;26.75;2.88;;;;;;;21.80;51.08;100603.91;7311515;19;159165;-38
2022/03/10 03:48:26;;;;;;;27.97;2.90;;;;;;;21.73;51.54;100605.28;7306091;19;130377;-38
2022/03/10 03:50:51;;;;;;;25.38;2.80;;;;;;;21.69;52.05;100611.72;7310855;19;129241;-39
2022/03/10 03:53:17;;;;;;;26.73;3.22;;;;;;;21.64;52.38;100613.00;7311798;19;129640;-38
2022/03/10 03:55:42;;;;;;;47.47;4.90;;;;;;;21.61;51.79;100598.41;7307464;19;129739;-41
2022/03/10 03:58:07;;;;;;;47.08;4.78;;;;;;;21.91;51.47;100622.25;7305622;19;134885;-39
2022/03/10 04:00:36;;;;;;;18.10;2.22;;;;;;;22.13;50.99;100618.81;7311465;19;154603;-39
2022/03/10 04:03:11;;;;;;;44.28;4.30;;;;;;;22.43;49.59;100626.13;7311567;19;129522;-40
2022/03/10 04:05:37;;;;;;;26.20;2.92;;;;;;;22.68;48.72;100621.47;7307654;19;130455;-40
2022/03/10 04:08:02;;;;;;;23.93;2.53;;;;;;;22.89;48.60;100624.19;7310146;19;129463;-39
2022/03/10 04:10:27;;;;;;;17.35;2.22;;;;;;;23.05;47.99;100637.72;7309151;19;129007;-38
2022/03/10 04:12:52;;;;;;;28.95;2.85;;;;;;;23.20;47.43;100636.47;7314054;19;128899;-38
2022/03/10 04:15:18;;;;;;;49.17;5.07;;;;;;;23.35;47.71;100645.75;7308315;19;157452;-38
2022/03/10 04:17:43;;;;;;;22.48;2.30;;;;;;;23.45;47.02;100641.44;7308318;19;158537;-38
2022/03/10 04:20:13;;;;;;;34.90;3.42;;;;;;;23.48;46.61;100643.78;7309534;19;155354;-38
2022/03/10 04:22:38;;;;;;;34.47;3.63;;;;;;;23.69;46.93;100649.88;7309733;19;128896;-38
2022/03/10 04:25:05;;;;;;;27.48;2.95;;;;;;;23.73;46.46;100651.31;7313573;19;130546;-38
2022/03/10 04:27:30;;;;;;;53.95;5.22;;;;;;;23.80;46.62;100647.19;7308413;19;130377;-42
2022/03/10 04:29:55;;;;;;;30.17;3.00;;;;;;;23.89;46.13;100646.44;7309270;19;130065;-38
2022/03/10 04:32:21;;;;;;;30.15;3.00;;;;;;;23.97;46.22;100643.13;7309776;19;154996;-40
2022/03/10 04:34:46;;;;;;;29.95;3.35;;;;;;;24.02;45.42;100652.34;7310869;19;157756;-39
2022/03/10 04:37:11;;;;;;;26.83;2.85;;;;;;;24.00;45.43;100635.03;7310692;19;130317;-39
2022/03/10 04:39:37;;;;;;;26.63;2.58;;;;;;;24.16;45.37;100649.34;7309035;19;154521;-39
2022/03/10 04:42:02;;;;;;;23.33;2.43;;;;;;;24.17;45.76;100651.03;7310509;19;154651;-38
2022/03/10 04:44:27;;;;;;;40.72;4.13;;;;;;;24.26;44.95;100654.69;7309921;19;130874;-38
2022/03/10 04:46:53;;;;;;;31.08;3.47;;;;;;;24.28;45.53;100652.72;7308380;19;157575;-38
2022/03/10 04:49:18;;;;;;;26.42;2.97;;;;;;;24.35;44.78;100652.09;7307757;19;129004;-38
2022/03/10 04:51:43;;;;;;;12.60;1.67;;;;;;;24.37;44.61;100655.44;7309965;19;153407;-40
2022/03/10 04:54:09;;;;;;;27.47;3.00;;;;;;;24.25;44.84;100642.50;7310592;19;154408;-39
2022/03/10 04:56:34;;;;;;;35.15;3.58;;;;;;;24.10;44.98;100634.13;7308067;19;159131;-38
2022/03/10 04:58:59;;;;;;;28.13;2.83;;;;;;;24.05;45.67;100652.06;7303822;19;155444;-38
2022/03/10 05:01:24;;;;;;;21.08;2.45;;;;;;;23.90;46.22;100655.97;7311055;19;153111;-39
2022/03/10 05:03:50;;;;;;;31.03;3.00;;;;;;;23.75;46.58;100654.63;7310350;19;158409;-38
2022/03/10 05:06:15;;;;;;;46.13;4.73;;;;;;;23.64;46.95;100656.47;7309378;19;130419;-39
2022/03/10 05:08:41;;;;;;;66.13;5.97;;;;;;;23.44;47.29;100650.25;7301043;19;129572;-38
2022/03/10 05:11:06;;;;;;;39.77;4.10;;;;;;;23.30;48.01;100653.19;7305869;19;154011;-39
2022/03/10 05:13:31;;;;;;;23.15;2.38;;;;;;;23.19;47.61;100653.16;7309528;19;158905;-38
2022/03/10 05:15:57;;;;;;;33.53;3.25;;;;;;;23.02;48.40;100658.94;7303889;19;140548;-39
2022/03/10 05:18:22;;;;;;;73.85;6.80;;;;;;;22.90;48.33;100659.91;7304591;19;145879;-41
2022/03/10 05:20:48;;;;;;;30.37;3.77;;;;;;;22.77;48.69;100654.84;7300900;19;130189;-38
2022/03/10 05:23:13;;;;;;;23.85;2.60;;;;;;;22.68;49.13;100660.78;7317592;19;130851;-38
2022/03/10 05:25:40;;;;;;;31.05;3.08;;;;;;;22.62;49.07;100652.56;7313953;19;129888;-40
2022/03/10 05:28:11;;;;;;;33.90;3.33;;;;;;;22.62;49.13;100655.19;7315583;19;129177;-41
2022/03/10 05:30:36;;;;;;;41.13;4.05;;;;;;;22.68;49.41;100652.06;7314308;19;129665;-38
2022/03/10 05:33:02;;;;;;;26.35;2.97;;;;;;;22.73;48.93;100652.56;7314187;19;158345;-38
2022/03/10 05:35:29;;;;;;;37.85;3.95;;;;;;;22.84;49.44;100650.75;7317494;19;129931;-39
2022/03/10 05:37:54;;;;;;;33.33;3.25;;;;;;;22.94;49.02;100661.34;7311269;19;129731;-38
2022/03/10 05:40:21;;;;;;;45.05;4.25;;;;;;;23.05;48.19;100662.16;7313015;19;130773;-38
2022/03/10 05:42:47;;;;;;;27.05;2.92;;;;;;;23.21;48.02;100669.63;7313270;19;130365;-39
2022/03/10 05:45:14;;;;;;;31.90;3.17;;;;;;;23.27;47.63;100679.63;7316493;19;130644;-41
2022/03/10 05:47:41;;;;;;;38.03;3.70;;;;;;;23.41;47.72;100676.75;7313160;19;129456;-40
2022/03/10 05:50:06;;;;;;;;;;;;;;;23.47;47.64;100678.84;7317255;19;129302;-39
2022/03/10 05:52:32;;;;;;;29.63;3.33;;;;;;;23.56;47.58;100680.75;7314983;19;129891;-39
2022/03/10 05:54:57;;;;;;;36.97;3.65;;;;;;;23.58;46.75;100684.06;7311818;19;139743;-38
2022/03/10 05:57:23;;;;;;;33.58;3.42;;;;;;;23.42;47.04;100673.16;7315970;19;128954;-38
2022/03/10 05:59:48;;;;;;;35.67;3.40;;;;;;;23.44;47.46;100689.59;7315755;19;130830;-40
2022/03/10 06:02:17;;;;;;;32.43;3.50;;;;;;;23.39;47.38;100683.91;7309613;19;157495;-39
2022/03/10 06:04:43;;;;;;;29.17;2.90;;;;;;;23.30;47.64;100676.78;7316729;19;130854;-39
2022/03/10 06:07:08;;;;;;;41.53;3.53;;;;;;;23.13;48.21;100672.88;7310624;19;129919;-39
2022/03/10 06:09:33;;;;;;;52.38;4.47;;;;;;;23.03;49.04;100687.69;7309889;19;153647;-40
2022/03/10 06:11:59;;;;;;;43.40;4.10;;;;;;;22.95;48.80;100681.38;7305784;19;156672;-38
2022/03/10 06:14:24;;;;;;;24.40;2.72;;;;;;;22.80;49.16;100679.97;7314052;19;130799;-40
2022/03/10 06:16:49;;;;;;;20.58;2.63;;;;;;;22.75;49.26;100676.88;7312980;19;130171;-38
2022/03/10 06:19:15;;;;;;;25.23;2.70;;;;;;;22.61;49.71;100674.50;7310205;19;154955;-40
2022/03/10 06:21:41;;;;;;;27.98;2.88;;;;;;;22.54;50.16;100686.41;7314567;19;130233;-39
2022/03/10 06:24:07;;;;;;;37.97;3.50;;;;;;;22.43;49.12;100691.63;7314218;19;130355;-39
2022/03/10 06:26:32;;;;;;;39.45;4.18;;;;;;;22.41;49.51;100698.78;7311907;19;130209;-38
2022/03/10 06:28:57;;;;;;;25.77;2.67;;;;;;;22.38;49.37;100694.59;7308454;19;132058;-38
2022/03/10 06:31:24;;;;;;;34.33;3.47;;;;;;;22.35;49.81;100693.97;7314008;19;130241;-40
2022/03/10 06:33:49;;;;;;;;;;;;;;;22.28;50.37;100691.00;7313402;19;131386;-37
2022/03/10 06:36:15;;;;;;;32.83;3.63;;;;;;;22.30;50.00;100698.75;7312681;19;128904;-40
2022/03/10 06:38:40;;;;;;;34.87;3.47;;;;;;;22.33;49.96;100696.72;7310468;19;153882;-39
2022/03/10 06:41:05;;;;;;;26.75;3.00;;;;;;;22.42;49.67;100703.03;7313371;19;158653;-38
2022/03/10 06:43:30;;;;;;;53.13;5.05;;;;;;;22.44;49.44;100683.66;7310683;19;159393;-38
2022/03/10 06:45:56;;;;;;;28.05;2.92;;;;;;;22.65;49.44;100699.50;7309691;19;154706;-39
2022/03/10 06:48:21;;;;;;;40.17;4.07;;;;;;;22.75;49.01;100697.84;7311477;19;154385;-40
2022/03/10 06:50:46;;;;;;;17.92;2.58;;;;;;;22.88;49.38;100707.25;7313602;19;158353;-38
2022/03/10 06:53:12;;;;;;;21.77;2.50;;;;;;;23.01;48.55;100701.84;7312019;19;157406;-39
2022/03/10 06:55:38;;;;;;;17.48;2.08;;;;;;;23.17;47.93;100704.94;7314443;19;128920;-39
2022/03/10 06:58:03;;;;;;;33.10;3.13;;;;;;;23.27;47.91;100711.13;7313487;19;129577;-39
2022/03/10 07:00:28;;;;;;;12.43;2.28;;;;;;;23.38;47.70;100713.72;7310763;19;158368;-39
2022/03/10 07:02:54;;;;;;;24.23;2.60;;;;;;;23.51;47.24;100714.41;7311519;19;158542;-38
2022/03/10 07:05:19;;;;;;;48.95;4.75;;;;;;;23.57;47.26;100719.16;7311214;19;130842;-39
2022/03/10 07:07:45;;;;;;;23.83;2.72;;;;;;;23.63;47.32;100723.91;7311516;19;129287;-39
2022/03/10 07:10:10;;;;;;;13.45;2.08;;;;;;;23.54;47.48;100716.78;7309619;19;159329;-40
2022/03/10 07:12:38;;;;;;;46.92;4.65;;;;;;;23.42;47.78;100720.38;7308947;19;130313;-39
2022/03/10 07:15:05;;;;;;;43.42;4.03;;;;;;;23.40;47.57;100732.81;7308294;19;129471;-38
2022/03/10 07:17:30;;;;;;;24.30;2.70;;;;;;;23.26;48.00;100725.19;7310285;19;130597;-39
2022/03/10 07:19:55;;;;;;;11.98;1.85;;;;;;;23.17;48.26;100725.94;7312838;19;130176;-37
2022/03/10 07:22:21;;;;;;;29.98;3.08;;;;;;;23.05;48.46;100730.38;7305041;19;159669;-38
2022/03/10 07:24:46;;;;;;;27.75;2.83;;;;;;;22.93;49.18;100726.06;7316152;19;130294;-38
2022/03/10 07:27:12;;;;;;;26.00;2.65;;;;;;;22.85;48.80;100725.00;7307120;19;154116;-38
2022/03/10 07:29:37;;;;;;;16.38;2.10;;;;;;;22.73;49.86;100733.81;7308579;19;131262;-39
2022/03/10 07:32:02;;;;;;;27.83;3.00;;;;;;;22.61;49.96;100724.31;7311037;19;158529;-38
2022/03/10 07:34:28;;;;;;;11.55;1.77;;;;;;;22.53;49.68;100726.66;7315856;19;128840;-38
2022/03/10 07:36:53;;;;;;;43.60;4.22;;;;;;;22.44;49.91;100727.34;7308668;19;154019;-41
2022/03/10 07:39:19;;;;;;;26.57;2.63;;;;;;;22.36;50.91;100727.91;7309851;19;130424;-40
2022/03/10 07:41:44;;;;;;;24.95;2.80;;;;;;;22.30;50.41;100728.41;7312661;19;129541;-39
2022/03/10 07:44:10;;;;;;;23.25;2.67;;;;;;;22.29;50.60;100737.22;7308966;19;154208;-39
2022/03/10 07:46:35;;;;;;;50.83;4.90;;;;;;;22.30;50.65;100727.56;7310721;19;128958;-40
2022/03/10 07:49:00;;;;;;;32.03;3.58;;;;;;;22.34;50.44;100723.75;7309634;19;157890;-38
2022/03/10 07:51:25;;;;;;;26.60;3.05;;;;;;;22.42;50.43;100722.22;7311518;19;158901;-39
2022/03/10 07:53:51;;;;;;;30.58;3.28;;;;;;;22.55;50.11;100719.53;7308874;19;153828;-38
2022/03/10 07:56:16;;;;;;;41.83;4.25;;;;;;;22.70;49.42;100727.03;7311981;19;154875;-38
2022/03/10 07:58:41;;;;;;;31.23;3.47;;;;;;;22.84;49.30;100731.22;7307162;19;130190;-39
2022/03/10 08:01:07;;;;;;;29.80;3.13;;;;;;;23.00;49.32;100729.03;7308403;19;129919;-39
2022/03/10 08:03:32;;;;;;;26.40;2.55;;;;;;;23.12;49.05;100725.47;7312876;19;128970;-38
2022/03/10 08:05:57;;;;;;;37.83;3.75;;;;;;;23.20;48.15;100720.44;7309838;19;154582;-38
2022/03/10 08:08:23;;;;;;;38.80;3.90;;;;;;;23.16;48.40;100713.75;7307397;19;158603;-38
2022/03/10 08:10:48;;;;;;;27.70;3.17;;;;;;;23.21;48.31;100719.47;7312963;19;130536;-39
2022/03/10 08:13:13;;;;;;;25.80;2.67;;;;;;;23.16;48.70;100721.63;7312082;19;128897;-39
2022/03/10 08:15:40;;;;;;;33.57;3.47;;;;;;;23.09;48.40;100723.06;7308540;19;130037;-38
2022/03/10 08:18:06;;;;;;;23.38;2.85;;;;;;;22.96;49.42;100723.22;7307867;19;130275;-39
2022/03/10 08:20:31;;;;;;;31.80;3.40;;;;;;;22.91;49.09;100719.28;7310793;19;130381;-39
2022/03/10 08:22:57;;;;;;;23.55;2.42;;;;;;;22.82;49.43;100720.00;7312300;19;129921;-39
2022/03/10 08:25:22;;;;;;;50.87;5.27;;;;;;;22.64;49.62;100700.47;7312664;19;129138;-40
2022/03/10 08:27:48;;;;;;;23.37;2.57;;;;;;;22.62;50.27;100724.19;7307115;19;158498;-38
2022/03/10 08:30:14;;;;;;;52.40;5.40;;;;;;;22.45;49.83;100705.44;7308298;19;129777;-39
2022/03/10 08:32:43;;;;;;;22.33;2.58;;;;;;;22.45;50.55;100723.75;7309918;19;129447;-39
2022/03/10 08:35:08;;;;;;;27.05;2.92;;;;;;;22.36;50.92;100716.63;7312390;19;129193;-39
2022/03/10 08:37:33;;;;;;;19.13;2.25;;;;;;;22.26;51.18;100715.66;7311345;19;129534;-38
2022/03/10 08:39:59;;;;;;;15.52;1.92;;;;;;;22.23;51.20;100721.13;7312209;19;142922;-39
2022/03/10 08:42:24;;;;;;;26.02;2.72;;;;;;;22.16;51.12;100722.53;7305728;19;154288;-39
2022/03/10 08:44:49;;;;;;;37.13;3.78;;;;;;;22.12;51.79;100728.94;7311949;19;128977;-39
2022/03/10 08:47:14;;;;;;;34.63;3.42;;;;;;;22.02;52.42;100728.81;7307913;19;157407;-38
2022/03/10 08:49:40;;;;;;;23.70;2.40;;;;;;;21.96;52.40;100724.84;7313153;19;131033;-39
2022/03/10 08:52:05;;;;;;;21.35;2.45;;;;;;;21.91;52.60;100726.97;7308901;19;152452;-39
2022/03/10 08:54:31;;;;;;;22.55;2.72;;;;;;;21.86;52.89;100728.28;7311708;19;128846;-38
2022/03/10 08:56:56;;;;;;;22.40;2.65;;;;;;;21.85;53.25;100724.00;7309938;19;158148;-39
2022/03/10 08:59:21;;;;;;;42.13;4.43;;;;;;;21.79;52.90;100727.06;7305847;19;158765;-38
2022/03/10 09:01:46;;;;;;;17.47;2.03;;;;;;;21.79;53.36;100722.69;7310442;19;155063;-39
2022/03/10 09:04:12;;;;;;;29.23;3.03;;;;;;;21.81;52.99;100720.78;7310157;19;129357;-39
2022/03/10 09:06:37;;;;;;;25.10;2.78;;;;;;;21.85;52.76;100716.97;7308934;19;157276;-40
2022/03/10 09:09:03;;;;;;;23.63;2.30;;;;;;;21.94;52.43;100721.53;7308265;19;159048;-39
2022/03/10 09:11:28;;;;;;;22.17;2.13;;;;;;;22.07;52.22;100728.47;7310197;19;129097;-39
2022/03/10 09:13:54;;;;;;;29.27;3.17;;;;;;;22.21;51.72;100723.03;7312393;19;129169;-39
2022/03/10 09:16:21;;;;;;;30.13;3.50;;;;;;;22.36;50.96;100727.09;7307301;19;131501;-38
2022/03/10 09:18:48;;;;;;;23.35;2.58;;;;;;;22.51;50.50;100723.31;7308396;19;130421;-39
2022/03/10 09:21:14;;;;;;;40.47;4.22;;;;;;;22.65;49.89;100734.44;7307112;19;129063;-38
2022/03/10 09:23:40;;;;;;;20.60;2.33;;;;;;;22.67;50.41;100736.94;7309037;19;129232;-38
2022/03/10 09:26:05;;;;;;;37.60;3.90;;;;;;;22.70;49.64;100736.69;7306361;19;158268;-38
2022/03/10 09:28:30;;;;;;;61.17;5.87;;;;;;;22.67;50.00;100739.56;7300981;19;130463;-40
2022/03/10 09:30:55;;;;;;;21.90;2.33;;;;;;;22.56;50.32;100742.19;7308511;19;154596;-38
2022/03/10 09:33:21;;;;;;;25.30;2.50;;;;;;;22.53;50.53;100745.00;7309082;19;154267;-39
2022/03/10 09:35:46;;;;;;;56.90;5.40;;;;;;;22.44;50.68;100745.69;7304219;19;159233;-40
2022/03/10 09:38:12;;;;;;;31.52;3.05;;;;;;;22.39;50.46;100745.22;7307196;19;130379;-39
2022/03/10 09:40:37;;;;;;;27.33;2.92;;;;;;;22.29;50.80;100745.09;7305287;19;154413;-40
2022/03/10 09:43:03;;;;;;;27.35;2.92;;;;;;;22.26;51.61;100747.09;7311044;19;128940;-38
2022/03/10 09:45:30;;;;;;;49.57;4.87;;;;;;;22.10;51.70;100738.72;7310083;19;130220;-38
2022/03/10 09:47:55;;;;;;;29.92;3.22;;;;;;;22.10;51.73;100757.06;7306310;19;130321;-39
2022/03/10 09:50:21;;;;;;;36.75;3.70;;;;;;;22.08;51.98;100748.47;7310022;19;129172;-38
2022/03/10 09:52:46;;;;;;;28.57;3.07;;;;;;;22.02;52.29;100754.16;7305122;19;154368;-39
2022/03/10 09:55:15;;;;;;;25.87;3.10;;;;;;;21.85;52.34;100731.84;7309791;19;130703;-38
2022/03/10 09:57:42;;;;;;;46.05;4.38;;;;;;;21.82;52.61;100738.16;7301787;19;132770;-38
2022/03/10 10:00:10;;;;;;;25.45;2.50;;;;;;;21.77;52.55;100735.03;7309866;19;129032;-40
2022/03/10 10:02:37;;;;;;;18.20;2.20;;;;;;;21.77;52.85;100749.91;7308469;19;129316;-40
2022/03/10 10:05:17;;;;;;;53.03;4.80;;;;;;;21.76;53.76;100753.44;7309382;19;130772;-38
2022/03/10 10:07:59;;;;;;;23.90;2.58;;;;;;;21.73;54.06;100748.44;7310264;19;129215;-38
2022/03/10 10:10:29;;;;;;;29.45;2.95;;;;;;;21.71;53.64;100747.72;7317569;19;129505;-39
2022/03/10 10:12:54;;;;;;;23.80;2.53;;;;;;;21.56;53.78;100726.13;7315043;19;129443;-39
2022/03/10 10:15:19;;;;;;;48.83;4.70;;;;;;;21.64;54.09;100734.25;7316639;19;130556;-38
2022/03/10 10:17:44;;;;;;;21.63;2.50;;;;;;;21.64;54.17;100733.41;7313850;19;158771;-38
2022/03/10 10:20:10;;;;;;;20.80;2.08;;;;;;;21.61;54.36;100738.88;7316326;19;129333;-39
2022/03/10 10:22:35;;;;;;;16.60;2.03;;;;;;;21.65;54.01;100735.91;7313627;19;129401;-39
2022/03/10 10:25:05;;;;;;;25.65;2.42;;;;;;;21.77;53.21;100740.28;7310040;19;157324;-39
2022/03/10 10:27:33;;;;;;;22.60;2.25;;;;;;;21.86;52.93;100742.22;7313218;19;129541;-39
2022/03/10 10:30:00;;;;;;;57.95;5.28;;;;;;;22.01;52.46;100736.78;7315694;19;129312;-39
2022/03/10 10:32:33;;;;;;;24.42;2.63;;;;;;;22.16;52.26;100735.63;7314143;19;128944;-39
2022/03/10 10:35:03;;;;;;;26.77;2.78;;;;;;;22.36;51.23;100721.88;7315021;19;130153;-38
2022/03/10 10:37:29;;;;;;;39.95;3.45;;;;;;;22.44;50.75;100703.78;7309893;19;131238;-39
2022/03/10 10:39:58;;;;;;;22.83;2.53;;;;;;;22.56;50.61;100724.63;7315112;19;129139;-40
2022/03/10 10:42:29;;;;;;;24.17;2.40;;;;;;;22.55;50.74;100725.59;7316834;19;129218;-38
2022/03/10 10:44:55;;;;;;;25.58;2.70;;;;;;;22.53;50.75;100714.41;7313072;19;130230;-40
2022/03/10 10:47:20;;;;;;;34.35;3.40;;;;;;;22.45;50.85;100708.03;7313508;19;129613;-38
2022/03/10 10:49:55;;;;;;;29.50;3.17;;;;;;;22.39;50.74;100709.38;7315721;19;131647;-38
2022/03/10 10:52:21;;;;;;;27.52;2.95;;;;;;;22.33;51.49;100714.25;7312963;19;129275;-39
2022/03/10 10:54:46;;;;;;;15.20;2.03;;;;;;;22.27;51.16;100701.59;7315894;19;130123;-38
2022/03/10 10:57:21;;;;;;;36.63;3.45;;;;;;;22.19;51.95;100714.44;7311416;19;129709;-38
2022/03/10 10:59:47;;;;;;;26.02;2.72;;;;;;;22.11;51.97;100711.56;7311042;19;129495;-38
2022/03/10 11:02:22;;;;;;;27.53;2.80;;;;;;;22.04;52.32;100707.75;7310999;19;130954;-38
2022/03/10 11:04:50;;;;;;;30.73;3.08;;;;;;;21.96;52.04;100703.91;7314832;19;129481;-39
2022/03/10 11:07:16;;;;;;;19.35;2.00;;;;;;;21.93;52.96;100698.09;7314364;19;129711;-39
2022/03/10 11:09:43;;;;;;;21.57;2.33;;;;;;;21.86;52.55;100697.72;7315012;19;130416;-38